createdAt,value
2018-05-16T00:02:17.309Z,100616
2018-05-16T00:04:45.699Z,100622
2018-05-16T00:07:14.006Z,100621
2018-05-16T00:09:42.329Z,100631
2018-05-16T00:12:10.664Z,100633
2018-05-16T00:14:41.603Z,100634
2018-05-16T00:17:11.865Z,100637
2018-05-16T00:19:40.335Z,100641
2018-05-16T00:22:08.715Z,100642
2018-05-16T00:24:37.118Z,100648
2018-05-16T00:27:05.541Z,100658
2018-05-16T00:29:34.671Z,100659
2018-05-16T00:32:03.163Z,100662
2018-05-16T00:34:31.575Z,100659
2018-05-16T00:37:00.006Z,100676
2018-05-16T00:39:29.304Z,100673
2018-05-16T00:41:58.598Z,100672
2018-05-16T00:44:28.014Z,100666
2018-05-16T00:46:56.501Z,100663
2018-05-16T00:49:24.908Z,100667
2018-05-16T00:51:53.194Z,100678
2018-05-16T00:54:21.544Z,100676
2018-05-16T00:56:49.929Z,100675
2018-05-16T00:59:18.526Z,100671
2018-05-16T01:01:46.957Z,100672
2018-05-16T01:04:16.170Z,100664
2018-05-16T01:06:44.506Z,100665
2018-05-16T01:09:12.919Z,100666
2018-05-16T01:11:42.346Z,100684
2018-05-16T01:14:10.949Z,100693
2018-05-16T01:16:39.289Z,100695
2018-05-16T01:19:08.439Z,100695
2018-05-16T01:21:36.769Z,100688
2018-05-16T01:24:05.059Z,100693
2018-05-16T01:26:33.595Z,100690
2018-05-16T01:29:02.041Z,100685
2018-05-16T01:31:30.643Z,100678
2018-05-16T01:33:59.003Z,100672
2018-05-16T01:36:27.304Z,100672
2018-05-16T01:38:55.629Z,100667
2018-05-16T01:41:23.950Z,100658
2018-05-16T01:43:52.470Z,100648
2018-05-16T01:46:22.280Z,100644
2018-05-16T01:49:10.475Z,100632
2018-05-16T01:51:39.065Z,100622
2018-05-16T01:54:07.399Z,100619
2018-05-16T01:56:35.806Z,100616
2018-05-16T01:59:04.262Z,100609
2018-05-16T02:01:32.614Z,100614
2018-05-16T02:04:02.063Z,100619
2018-05-16T02:06:31.371Z,100626
2018-05-16T02:08:59.680Z,100632
2018-05-16T02:11:28.012Z,100628
2018-05-16T02:13:56.365Z,100621
2018-05-16T02:16:25.521Z,100623
2018-05-16T02:18:54.020Z,100620
2018-05-16T02:21:23.122Z,100623
2018-05-16T02:23:52.359Z,100621
2018-05-16T02:26:20.653Z,100617
2018-05-16T02:28:48.980Z,100628
2018-05-16T02:31:18.156Z,100631
2018-05-16T02:33:46.629Z,100633
2018-05-16T02:36:15.266Z,100628
2018-05-16T02:38:43.684Z,100627
2018-05-16T02:41:12.006Z,100628
2018-05-16T02:43:41.140Z,100628
2018-05-16T02:46:09.487Z,100628
2018-05-16T02:48:37.841Z,100626
2018-05-16T02:51:06.137Z,100635
2018-05-16T02:53:35.230Z,100640
2018-05-16T02:56:04.312Z,100634
2018-05-16T02:58:33.397Z,100633
2018-05-16T03:01:01.816Z,100632
2018-05-16T03:03:30.250Z,100632
2018-05-16T03:05:58.806Z,100633
2018-05-16T03:08:27.279Z,100640
2018-05-16T03:10:57.119Z,100647
2018-05-16T03:13:25.806Z,100648
2018-05-16T03:15:54.199Z,100654
2018-05-16T03:18:22.556Z,100660
2018-05-16T03:20:51.095Z,100659
2018-05-16T03:23:19.446Z,100657
2018-05-16T03:25:48.001Z,100661
2018-05-16T03:28:16.356Z,100669
2018-05-16T03:30:44.700Z,100672
2018-05-16T03:33:13.890Z,100672
2018-05-16T03:35:43.015Z,100636
2018-05-16T03:38:13.112Z,100678
2018-05-16T03:40:43.354Z,100678
2018-05-16T03:43:11.681Z,100678
2018-05-16T03:45:40.035Z,100687
2018-05-16T03:48:08.476Z,100688
2018-05-16T03:50:36.827Z,100691
2018-05-16T03:53:05.111Z,100693
2018-05-16T03:55:34.396Z,100698
2018-05-16T03:58:29.439Z,100701
2018-05-16T04:01:15.630Z,100704
2018-05-16T04:04:01.771Z,100704
2018-05-16T04:06:30.215Z,100707
2018-05-16T04:08:58.564Z,100706
2018-05-16T04:11:27.683Z,100714
2018-05-16T04:13:57.142Z,100713
2018-05-16T04:16:25.638Z,100715
2018-05-16T04:18:54.182Z,100724
2018-05-16T04:21:22.531Z,100719
2018-05-16T04:23:51.036Z,100718
2018-05-16T04:26:19.596Z,100720
2018-05-16T04:28:48.318Z,100718
2018-05-16T04:31:17.602Z,100721
2018-05-16T04:33:45.941Z,100719
2018-05-16T04:36:15.006Z,100722
2018-05-16T04:38:43.341Z,100720
2018-05-16T04:41:11.744Z,100728
2018-05-16T04:43:40.084Z,100731
2018-05-16T04:46:08.420Z,100733
2018-05-16T04:48:37.004Z,100732
2018-05-16T04:51:05.445Z,100740
2018-05-16T04:53:33.762Z,100734
2018-05-16T04:56:02.125Z,100736
2018-05-16T04:58:30.438Z,100738
2018-05-16T05:00:59.586Z,100732
2018-05-16T05:03:28.023Z,100739
2018-05-16T05:05:56.412Z,100739
2018-05-16T05:08:24.814Z,100734
2018-05-16T05:10:54.116Z,100727
2018-05-16T05:13:22.476Z,100723
2018-05-16T05:15:50.772Z,100728
2018-05-16T05:18:19.332Z,100727
2018-05-16T05:20:47.720Z,100733
2018-05-16T05:23:16.104Z,100730
2018-05-16T05:25:44.644Z,100736
2018-05-16T05:28:13.821Z,100735
2018-05-16T05:30:42.120Z,100731
2018-05-16T05:33:10.481Z,100733
2018-05-16T05:35:38.795Z,100731
2018-05-16T05:38:08.031Z,100740
2018-05-16T05:40:36.384Z,100739
2018-05-16T05:43:04.767Z,100742
2018-05-16T05:45:33.241Z,100737
2018-05-16T05:48:01.812Z,100727
2018-05-16T05:50:30.276Z,100723
2018-05-16T05:52:59.530Z,100730
2018-05-16T05:55:27.836Z,100725
2018-05-16T05:57:56.322Z,100731
2018-05-16T06:00:24.807Z,100729
2018-05-16T06:02:54.209Z,100733
2018-05-16T06:05:22.633Z,100728
2018-05-16T06:07:50.952Z,100727
2018-05-16T06:10:19.321Z,100729
2018-05-16T06:12:48.157Z,100731
2018-05-16T06:15:16.560Z,100738
2018-05-16T06:17:44.925Z,100741
2018-05-16T06:20:13.423Z,100750
2018-05-16T06:22:41.754Z,100754
2018-05-16T06:25:10.355Z,100755
2018-05-16T06:27:39.421Z,100764
2018-05-16T06:30:07.968Z,100770
2018-05-16T06:32:36.514Z,100752
2018-05-16T06:35:04.947Z,100773
2018-05-16T06:37:33.878Z,100775
2018-05-16T06:40:02.370Z,100771
2018-05-16T06:42:31.006Z,100774
2018-05-16T06:44:59.360Z,100775
2018-05-16T06:47:27.702Z,100777
2018-05-16T06:49:56.905Z,100775
2018-05-16T06:52:25.994Z,100774
2018-05-16T06:54:55.266Z,100774
2018-05-16T06:57:23.612Z,100770
2018-05-16T06:59:52.016Z,100771
2018-05-16T07:02:21.174Z,100767
2018-05-16T07:04:49.641Z,100763
2018-05-16T07:07:18.031Z,100775
2018-05-16T07:09:46.545Z,100780
2018-05-16T07:12:16.005Z,100773
2018-05-16T07:14:44.405Z,100773
2018-05-16T07:17:12.774Z,100779
2018-05-16T07:19:41.180Z,100778
2018-05-16T07:22:09.543Z,100780
2018-05-16T07:24:38.795Z,100782
2018-05-16T07:27:07.320Z,100780
2018-05-16T07:29:35.647Z,100778
2018-05-16T07:32:03.972Z,100781
2018-05-16T07:34:32.330Z,100776
2018-05-16T07:37:00.786Z,100775
2018-05-16T07:39:29.336Z,100773
2018-05-16T07:41:58.485Z,100778
2018-05-16T07:44:27.745Z,100776
2018-05-16T07:46:56.281Z,100782
2018-05-16T07:49:24.661Z,100789
2018-05-16T07:51:53.046Z,100785
2018-05-16T07:54:21.484Z,100789
2018-05-16T07:56:50.610Z,100793
2018-05-16T07:59:19.414Z,100798
2018-05-16T08:01:47.763Z,100803
2018-05-16T08:04:16.960Z,100804
2018-05-16T08:06:45.461Z,100807
2018-05-16T08:09:13.817Z,100808
2018-05-16T08:11:44.022Z,100815
2018-05-16T08:14:12.487Z,100819
2018-05-16T08:16:40.913Z,100823
2018-05-16T08:19:09.382Z,100821
2018-05-16T08:21:38.517Z,100823
2018-05-16T08:24:07.153Z,100813
2018-05-16T08:26:36.307Z,100808
2018-05-16T08:29:04.766Z,100805
2018-05-16T08:31:33.172Z,100806
2018-05-16T08:34:01.612Z,100804
2018-05-16T08:36:29.957Z,100804
2018-05-16T08:38:58.262Z,100808
2018-05-16T08:41:26.712Z,100806
2018-05-16T08:43:56.993Z,100818
2018-05-16T08:46:25.556Z,100819
2018-05-16T08:48:53.992Z,100821
2018-05-16T08:51:22.421Z,100820
2018-05-16T08:53:50.787Z,100811
2018-05-16T08:56:19.316Z,100813
2018-05-16T08:58:47.767Z,100805
2018-05-16T09:01:16.154Z,100806
2018-05-16T09:03:44.461Z,100801
2018-05-16T09:06:12.826Z,100809
2018-05-16T09:08:41.221Z,100807
2018-05-16T09:11:09.567Z,100808
2018-05-16T09:13:37.910Z,100816
2018-05-16T09:16:07.055Z,100817
2018-05-16T09:18:35.497Z,100810
2018-05-16T09:21:04.110Z,100815
2018-05-16T09:23:32.562Z,100822
2018-05-16T09:26:01.133Z,100816
2018-05-16T09:28:30.334Z,100820
2018-05-16T09:30:59.442Z,100815
2018-05-16T09:33:27.956Z,100817
2018-05-16T09:35:56.360Z,100821
2018-05-16T09:38:24.801Z,100821
2018-05-16T09:40:53.143Z,100823
2018-05-16T09:43:22.762Z,100826
2018-05-16T09:45:51.544Z,100823
2018-05-16T09:48:20.855Z,100822
2018-05-16T09:50:49.235Z,100820
2018-05-16T09:53:17.817Z,100821
2018-05-16T09:55:46.990Z,100819
2018-05-16T09:58:16.227Z,100820
2018-05-16T10:00:44.722Z,100819
2018-05-16T10:03:13.142Z,100825
2018-05-16T10:05:41.533Z,100830
2018-05-16T10:08:10.654Z,100831
2018-05-16T10:10:39.008Z,100826
2018-05-16T10:13:07.393Z,100837
2018-05-16T10:15:35.769Z,100846
2018-05-16T10:18:04.986Z,100855
2018-05-16T10:20:33.482Z,100848
2018-05-16T10:23:01.863Z,100846
2018-05-16T10:25:30.207Z,100847
2018-05-16T10:27:58.561Z,100847
2018-05-16T10:30:26.945Z,100847
2018-05-16T10:32:56.075Z,100844
2018-05-16T10:35:24.482Z,100840
2018-05-16T10:37:52.987Z,100842
2018-05-16T10:40:21.427Z,100851
2018-05-16T10:42:49.753Z,100851
2018-05-16T10:45:18.101Z,100849
2018-05-16T10:47:46.461Z,100846
2018-05-16T10:50:14.798Z,100836
2018-05-16T10:52:43.918Z,100829
2018-05-16T10:55:12.274Z,100838
2018-05-16T10:57:41.413Z,100839
2018-05-16T11:00:09.723Z,100840
2018-05-16T11:02:38.084Z,100842
2018-05-16T11:05:06.489Z,100839
2018-05-16T11:07:35.836Z,100841
2018-05-16T11:10:05.194Z,100836
2018-05-16T11:12:33.682Z,100838
2018-05-16T11:15:03.624Z,100844
2018-05-16T11:17:34.025Z,100844
2018-05-16T11:20:02.906Z,100839
2018-05-16T11:22:33.229Z,100847
2018-05-16T11:25:02.528Z,100846
2018-05-16T11:27:31.875Z,100850
2018-05-16T11:30:00.229Z,100850
2018-05-16T11:32:29.516Z,100857
2018-05-16T11:34:58.629Z,100863
2018-05-16T11:37:27.813Z,100864
2018-05-16T11:39:56.968Z,100866
2018-05-16T11:42:25.332Z,100857
2018-05-16T11:44:54.512Z,100856
2018-05-16T11:47:22.874Z,100863
2018-05-16T11:49:52.023Z,100867
2018-05-16T11:52:20.524Z,100863
2018-05-16T11:54:49.069Z,100867
2018-05-16T11:57:18.129Z,100870
2018-05-16T11:59:46.785Z,100878
2018-05-16T12:02:15.960Z,100876
2018-05-16T12:04:44.554Z,100890
2018-05-16T12:07:12.971Z,100895
2018-05-16T12:09:41.587Z,100902
2018-05-16T12:12:09.985Z,100898
2018-05-16T12:14:38.614Z,100892
2018-05-16T12:17:06.817Z,100883
2018-05-16T12:19:35.328Z,100877
2018-05-16T12:22:04.014Z,100871
2018-05-16T12:24:32.379Z,100861
2018-05-16T12:27:00.716Z,100860
2018-05-16T12:29:29.215Z,100857
2018-05-16T12:31:58.522Z,100863
2018-05-16T12:34:26.882Z,100856
2018-05-16T12:36:56.125Z,100855
2018-05-16T12:39:25.043Z,100852
2018-05-16T12:41:53.441Z,100852
2018-05-16T12:44:21.958Z,100857
2018-05-16T12:46:50.402Z,100857
2018-05-16T12:49:19.571Z,100856
2018-05-16T12:51:47.883Z,100860
2018-05-16T12:54:16.207Z,100865
2018-05-16T12:56:44.552Z,100874
2018-05-16T12:59:12.930Z,100877
2018-05-16T13:01:41.410Z,100873
2018-05-16T13:04:09.956Z,100878
2018-05-16T13:06:38.323Z,100877
2018-05-16T13:09:06.737Z,100876
2018-05-16T13:11:35.944Z,100874
2018-05-16T13:14:05.132Z,100868
2018-05-16T13:16:34.357Z,100870
2018-05-16T13:19:02.702Z,100864
2018-05-16T13:21:31.846Z,100865
2018-05-16T13:24:00.184Z,100863
2018-05-16T13:26:29.322Z,100870
2018-05-16T13:28:57.704Z,100872
2018-05-16T13:31:26.458Z,100873
2018-05-16T13:33:55.836Z,100874
2018-05-16T13:36:24.242Z,100882
2018-05-16T13:38:52.624Z,100872
2018-05-16T13:41:20.995Z,100847
2018-05-16T13:43:50.205Z,100873
2018-05-16T13:46:18.857Z,100874
2018-05-16T13:48:47.358Z,100868
2018-05-16T13:51:16.419Z,100860
2018-05-16T13:53:44.841Z,100847
2018-05-16T13:56:13.282Z,100843
2018-05-16T13:58:41.738Z,100833
2018-05-16T14:01:10.072Z,100829
2018-05-16T14:03:38.473Z,100816
2018-05-16T14:06:06.909Z,100809
2018-05-16T14:08:35.237Z,100805
2018-05-16T14:11:03.619Z,100798
2018-05-16T14:13:32.584Z,100792
2018-05-16T14:16:00.997Z,100786
2018-05-16T14:18:29.439Z,100786
2018-05-16T14:20:57.953Z,100785
2018-05-16T14:23:27.378Z,100784
2018-05-16T14:25:55.773Z,100774
2018-05-16T14:28:25.034Z,100768
2018-05-16T14:30:54.508Z,100769
2018-05-16T14:33:22.944Z,100766
2018-05-16T14:35:51.475Z,100770
2018-05-16T14:38:19.897Z,100759
2018-05-16T14:40:48.348Z,100751
2018-05-16T14:43:16.897Z,100751
2018-05-16T14:45:46.140Z,100746
2018-05-16T14:48:14.595Z,100737
2018-05-16T14:50:43.022Z,100739
2018-05-16T14:53:12.183Z,100736
2018-05-16T14:55:40.569Z,100729
2018-05-16T14:58:08.906Z,100731
2018-05-16T15:00:38.073Z,100729
2018-05-16T15:03:07.855Z,100729
2018-05-16T15:05:36.302Z,100724
2018-05-16T15:08:05.481Z,100714
2018-05-16T15:10:34.878Z,100713
2018-05-16T15:13:03.203Z,100715
2018-05-16T15:15:31.553Z,100717
2018-05-16T15:18:00.725Z,100715
2018-05-16T15:20:29.202Z,100724
2018-05-16T15:22:57.962Z,100717
2018-05-16T15:25:26.444Z,100712
2018-05-16T15:27:54.773Z,100716
2018-05-16T15:30:23.943Z,100717
2018-05-16T15:32:52.289Z,100722
2018-05-16T15:35:20.617Z,100724
2018-05-16T15:37:50.299Z,100723
2018-05-16T15:40:19.263Z,100726
2018-05-16T15:42:47.869Z,100726
2018-05-16T15:45:16.241Z,100730
2018-05-16T15:47:44.590Z,100719
2018-05-16T15:50:13.205Z,100700
2018-05-16T15:52:41.797Z,100689
2018-05-16T15:55:10.210Z,100678
2018-05-16T15:57:38.552Z,100682
2018-05-16T16:00:10.896Z,100689
2018-05-16T16:02:39.292Z,100680
2018-05-16T16:05:07.597Z,100684
2018-05-16T16:07:37.554Z,100697
2018-05-16T16:10:05.999Z,100711
2018-05-16T16:12:34.567Z,100718
2018-05-16T16:15:02.876Z,100742
2018-05-16T16:17:32.085Z,100736
2018-05-16T16:20:00.542Z,100732
2018-05-16T16:22:29.093Z,100724
2018-05-16T16:24:58.715Z,100732
2018-05-16T16:27:27.957Z,100751
2018-05-16T16:29:56.322Z,100762
2018-05-16T16:32:24.814Z,100798
2018-05-16T16:34:53.226Z,100847
2018-05-16T16:37:21.576Z,100891
2018-05-16T16:39:50.188Z,100875
2018-05-16T16:42:18.652Z,100825
2018-05-16T16:44:47.109Z,100823
2018-05-16T16:47:15.560Z,100798
2018-05-16T16:49:44.118Z,100794
2018-05-16T16:52:12.528Z,100798
2018-05-16T16:54:41.667Z,100795
2018-05-16T16:57:10.241Z,100795
2018-05-16T16:59:38.583Z,100796
2018-05-16T17:02:07.885Z,100795
2018-05-16T17:04:36.343Z,100810
2018-05-16T17:09:40.332Z,100819
2018-05-16T17:12:08.751Z,100817
2018-05-16T17:14:38.185Z,100819
2018-05-16T17:17:06.696Z,100813
2018-05-16T17:19:35.570Z,100816
2018-05-16T17:22:04.816Z,100827
2018-05-16T17:24:33.311Z,100835
2018-05-16T17:27:02.530Z,100838
2018-05-16T17:29:31.193Z,100843
2018-05-16T17:32:00.010Z,100850
2018-05-16T17:34:29.618Z,100857
2018-05-16T17:36:57.980Z,100863
2018-05-16T17:39:26.690Z,100884
2018-05-16T17:41:55.402Z,100931
2018-05-16T17:44:24.057Z,100961
2018-05-16T17:46:52.440Z,100955
2018-05-16T17:49:21.016Z,100952
2018-05-16T17:51:49.952Z,100958
2018-05-16T17:54:19.210Z,100961
2018-05-16T17:56:47.575Z,100963
2018-05-16T17:59:16.217Z,100963
2018-05-16T18:01:44.857Z,100972
2018-05-16T18:04:13.362Z,100961
2018-05-16T18:06:41.911Z,100960
2018-05-16T18:09:10.492Z,100959
2018-05-16T18:11:38.918Z,100960
2018-05-16T18:14:25.957Z,100950
2018-05-16T18:17:12.182Z,100933
2018-05-16T18:19:40.600Z,100923
2018-05-16T18:22:09.349Z,100925
2018-05-16T18:24:37.796Z,100933
2018-05-16T18:27:06.356Z,100936
2018-05-16T18:29:35.921Z,100937
2018-05-16T18:32:04.489Z,100941
2018-05-16T18:34:32.920Z,100935
2018-05-16T18:37:02.299Z,100929
2018-05-16T18:39:30.857Z,100932
2018-05-16T18:41:59.309Z,100937
2018-05-16T18:44:27.770Z,100930
2018-05-16T18:46:56.962Z,100925
2018-05-16T18:49:25.425Z,100924
2018-05-16T18:51:54.190Z,100937
2018-05-16T18:54:22.693Z,100954
2018-05-16T18:56:51.153Z,100951
2018-05-16T18:59:19.905Z,100952
2018-05-16T19:01:48.358Z,100957
2018-05-16T19:04:17.774Z,100949
2018-05-16T19:06:46.251Z,100955
2018-05-16T19:09:14.693Z,100960
2018-05-16T19:11:43.308Z,100970
2018-05-16T19:14:11.738Z,100972
2018-05-16T19:16:40.150Z,100972
2018-05-16T19:19:09.495Z,100972
2018-05-16T19:21:37.922Z,100980
2018-05-16T19:24:07.913Z,100985
2018-05-16T19:26:36.713Z,100994
2018-05-16T19:29:05.083Z,100995
2018-05-16T19:31:33.593Z,101000
2018-05-16T19:34:01.981Z,101021
2018-05-16T19:36:30.511Z,101027
2018-05-16T19:38:59.321Z,101035
2018-05-16T19:41:28.073Z,101048
2018-05-16T19:43:56.903Z,101052
2018-05-16T19:46:26.286Z,101043
2018-05-16T19:48:54.823Z,101048
2018-05-16T19:51:23.190Z,101055
2018-05-16T19:53:51.624Z,101063
2018-05-16T19:56:19.988Z,101058
2018-05-16T19:58:49.485Z,101062
2018-05-16T20:01:18.168Z,101062
2018-05-16T20:03:46.585Z,101067
2018-05-16T20:06:15.165Z,101073
2018-05-16T20:08:43.804Z,101078
2018-05-16T20:11:12.389Z,101081
2018-05-16T20:13:40.754Z,101080
2018-05-16T20:16:09.476Z,101080
2018-05-16T20:18:38.730Z,101082
2018-05-16T20:21:07.130Z,101082
2018-05-16T20:23:35.560Z,101084
2018-05-16T20:26:03.931Z,101088
2018-05-16T20:28:33.864Z,101084
2018-05-16T20:31:04.293Z,101082
2018-05-16T20:33:33.444Z,101076
2018-05-16T20:36:01.875Z,101068
2018-05-16T20:38:31.364Z,101070
2018-05-16T20:41:00.810Z,101062
2018-05-16T20:43:29.261Z,101070
2018-05-16T20:45:57.874Z,101076
2018-05-16T20:48:26.424Z,101075
2018-05-16T20:50:55.544Z,101072
2018-05-16T20:53:23.911Z,101074
2018-05-16T20:55:52.300Z,101065
2018-05-16T20:58:20.641Z,101073
2018-05-16T21:00:49.804Z,101075
2018-05-16T21:03:18.299Z,101077
2018-05-16T21:05:49.594Z,101079
2018-05-16T21:08:18.075Z,101092
2018-05-16T21:10:46.501Z,101091
2018-05-16T21:13:14.926Z,101084
2018-05-16T21:15:44.157Z,101084
2018-05-16T21:18:12.730Z,101070
2018-05-16T21:20:41.376Z,101084
2018-05-16T21:23:10.571Z,101097
2018-05-16T21:25:39.046Z,101102
2018-05-16T21:28:08.280Z,101098
2018-05-16T21:30:36.658Z,101099
2018-05-16T21:33:05.132Z,101100
2018-05-16T21:35:33.763Z,101101
2018-05-16T21:38:02.217Z,101108
2018-05-16T21:40:30.691Z,101115
2018-05-16T21:42:59.106Z,101110
2018-05-16T21:45:27.615Z,101110
2018-05-16T21:47:56.039Z,101122
2018-05-16T21:50:24.345Z,101127
2018-05-16T21:52:52.719Z,101141
2018-05-16T21:55:21.068Z,101144
2018-05-16T21:57:49.632Z,101145
2018-05-16T22:00:18.109Z,101145
2018-05-16T22:02:47.344Z,101144
2018-05-16T22:05:15.775Z,101146
2018-05-16T22:07:44.102Z,101152
2018-05-16T22:10:12.679Z,101158
2018-05-16T22:12:42.759Z,101159
2018-05-16T22:15:11.931Z,101165
2018-05-16T22:17:40.301Z,101162
2018-05-16T22:20:08.619Z,101160
2018-05-16T22:22:37.131Z,101158
2018-05-16T22:25:05.489Z,101151
2018-05-16T22:27:33.949Z,101155
2018-05-16T22:30:01.674Z,101156
2018-05-16T22:32:35.440Z,101160
2018-05-16T22:35:09.202Z,101163
2018-05-16T22:37:43.276Z,101169
2018-05-16T22:40:17.343Z,101166
2018-05-16T22:42:45.138Z,101162
2018-05-16T22:45:18.917Z,101157
2018-05-16T22:47:48.013Z,101163
2018-05-16T22:50:16.425Z,101158
2018-05-16T22:52:45.021Z,101160
2018-05-16T22:55:13.469Z,101162
2018-05-16T22:57:41.940Z,101157
2018-05-16T23:00:10.465Z,101155
2018-05-16T23:02:38.885Z,101157
2018-05-16T23:05:07.217Z,101156
2018-05-16T23:07:35.589Z,101164
2018-05-16T23:10:04.140Z,101157
2018-05-16T23:12:33.247Z,101166
2018-05-16T23:15:02.392Z,101167
2018-05-16T23:17:30.899Z,101164
2018-05-16T23:20:00.110Z,101160
2018-05-16T23:22:29.188Z,101160
2018-05-16T23:24:57.572Z,101167
2018-05-16T23:27:26.795Z,101164
2018-05-16T23:29:56.211Z,101164
2018-05-16T23:32:24.649Z,101165
2018-05-16T23:34:53.034Z,101166
2018-05-16T23:37:22.180Z,101165
2018-05-16T23:39:50.569Z,101168
2018-05-16T23:42:20.239Z,101172
2018-05-16T23:44:50.482Z,101176
2018-05-16T23:47:18.976Z,101175
2018-05-16T23:49:47.435Z,101179
2018-05-16T23:52:15.794Z,101182
2018-05-16T23:54:45.082Z,101161
2018-05-16T23:57:13.501Z,101179
2018-05-16T23:59:41.779Z,101187
